createdAt,value
2018-06-25T00:02:04.453Z,7.13
2018-06-25T00:04:34.214Z,6.47
2018-06-25T00:07:04.763Z,7.93
2018-06-25T00:09:35.121Z,5.77
2018-06-25T00:12:04.572Z,6.27
2018-06-25T00:14:34.657Z,3.80
2018-06-25T00:17:05.035Z,4.93
2018-06-25T00:19:35.185Z,5.87
2018-06-25T00:22:05.727Z,4.50
2018-06-25T00:24:36.416Z,4.00
2018-06-25T00:27:06.779Z,3.33
2018-06-25T00:29:37.104Z,7.77
2018-06-25T00:32:08.210Z,4.30
2018-06-25T00:34:38.600Z,7.17
2018-06-25T00:37:09.045Z,5.70
2018-06-25T00:39:40.125Z,6.33
2018-06-25T00:42:11.194Z,5.93
2018-06-25T00:44:40.844Z,3.23
2018-06-25T00:47:11.058Z,5.63
2018-06-25T00:49:41.432Z,7.03
2018-06-25T00:52:11.520Z,7.67
2018-06-25T00:54:42.089Z,5.13
2018-06-25T00:57:12.113Z,7.67
2018-06-25T00:59:49.727Z,6.47
2018-06-25T01:02:20.476Z,10.00
2018-06-25T01:04:50.958Z,5.27
2018-06-25T01:07:20.747Z,4.87
2018-06-25T01:09:50.936Z,2.60
2018-06-25T01:12:21.695Z,4.30
2018-06-25T01:14:51.755Z,4.97
2018-06-25T01:17:22.102Z,3.00
2018-06-25T01:19:52.563Z,5.30
2018-06-25T01:22:25.056Z,9.20
2018-06-25T01:24:55.115Z,8.37
2018-06-25T01:27:25.333Z,5.00
2018-06-25T01:29:57.216Z,5.40
2018-06-25T01:32:27.462Z,3.60
2018-06-25T01:34:58.387Z,5.73
2018-06-25T01:37:29.104Z,2.90
2018-06-25T01:40:00.012Z,3.20
2018-06-25T01:42:30.279Z,7.57
2018-06-25T01:45:00.677Z,4.97
2018-06-25T01:47:31.076Z,4.27
2018-06-25T01:50:01.700Z,7.60
2018-06-25T01:52:32.414Z,5.17
2018-06-25T01:55:03.387Z,6.63
2018-06-25T01:57:33.959Z,4.10
2018-06-25T02:00:04.595Z,5.97
2018-06-25T02:02:34.770Z,4.47
2018-06-25T02:05:04.658Z,9.33
2018-06-25T02:07:34.716Z,5.47
2018-06-25T02:10:05.313Z,6.00
2018-06-25T02:12:35.833Z,4.67
2018-06-25T02:15:06.722Z,4.07
2018-06-25T02:17:37.308Z,6.13
2018-06-25T02:20:07.269Z,7.40
2018-06-25T02:22:37.353Z,5.80
2018-06-25T02:25:07.617Z,5.43
2018-06-25T02:27:37.850Z,2.67
2018-06-25T02:30:08.033Z,5.33
2018-06-25T02:32:38.024Z,3.87
2018-06-25T02:35:08.467Z,8.63
2018-06-25T02:37:38.613Z,5.57
2018-06-25T02:40:09.282Z,6.30
2018-06-25T02:42:39.558Z,4.07
2018-06-25T02:45:09.237Z,5.83
2018-06-25T02:47:39.310Z,3.50
2018-06-25T02:50:09.486Z,6.37
2018-06-25T02:52:39.507Z,5.13
2018-06-25T02:55:09.764Z,5.17
2018-06-25T02:57:40.067Z,5.10
2018-06-25T03:00:10.295Z,3.50
2018-06-25T03:02:40.706Z,5.37
2018-06-25T03:05:10.856Z,5.93
2018-06-25T03:07:40.942Z,6.43
2018-06-25T03:10:11.471Z,4.17
2018-06-25T03:12:40.800Z,3.23
2018-06-25T03:15:10.952Z,6.00
2018-06-25T03:17:41.360Z,2.73
2018-06-25T03:20:12.223Z,2.87
2018-06-25T03:22:42.406Z,6.30
2018-06-25T03:25:12.638Z,2.93
2018-06-25T03:27:42.851Z,6.33
2018-06-25T03:30:13.245Z,4.40
2018-06-25T03:32:43.513Z,2.43
2018-06-25T03:35:13.875Z,4.73
2018-06-25T03:37:44.216Z,4.37
2018-06-25T03:40:13.890Z,4.33
2018-06-25T03:42:44.368Z,6.93
2018-06-25T03:45:14.189Z,2.50
2018-06-25T03:47:44.273Z,4.33
2018-06-25T03:50:14.428Z,6.17
2018-06-25T03:52:44.685Z,3.73
2018-06-25T03:57:49.062Z,4.73
2018-06-25T04:00:19.146Z,7.00
2018-06-25T04:02:49.540Z,4.23
2018-06-25T04:05:19.994Z,3.93
2018-06-25T04:07:50.410Z,11.67
2018-06-25T04:10:20.767Z,7.60
2018-06-25T04:12:50.953Z,5.77
2018-06-25T04:15:21.362Z,5.83
2018-06-25T04:17:51.611Z,5.23
2018-06-25T04:20:21.812Z,9.57
2018-06-25T04:22:52.059Z,8.50
2018-06-25T04:25:22.419Z,10.43
2018-06-25T04:27:52.781Z,11.23
2018-06-25T04:30:22.855Z,14.70
2018-06-25T04:32:53.071Z,8.40
2018-06-25T04:35:23.435Z,14.40
2018-06-25T04:37:53.610Z,7.20
2018-06-25T04:40:24.049Z,9.27
2018-06-25T04:42:54.322Z,14.03
2018-06-25T04:45:24.580Z,8.43
2018-06-25T04:47:54.661Z,13.90
2018-06-25T04:50:25.005Z,13.10
2018-06-25T04:52:55.278Z,16.17
2018-06-25T04:55:25.170Z,11.97
2018-06-25T04:57:55.405Z,8.33
2018-06-25T05:00:25.876Z,11.07
2018-06-25T05:02:56.253Z,13.70
2018-06-25T05:05:26.633Z,14.90
2018-06-25T05:07:57.301Z,23.50
2018-06-25T05:10:27.317Z,34.50
2018-06-25T05:12:57.742Z,47.97
2018-06-25T05:15:28.287Z,34.73
2018-06-25T05:17:58.689Z,57.47
2018-06-25T05:20:28.962Z,66.57
2018-06-25T05:22:59.232Z,50.73
2018-06-25T05:25:29.505Z,52.23
2018-06-25T05:27:59.815Z,63.13
2018-06-25T05:30:30.276Z,40.37
2018-06-25T05:33:00.400Z,42.60
2018-06-25T05:35:30.775Z,55.70
2018-06-25T05:38:01.197Z,79.23
2018-06-25T05:40:31.833Z,87.80
2018-06-25T05:43:02.171Z,98.57
2018-06-25T05:45:32.524Z,95.33
2018-06-25T05:48:02.979Z,104.17
2018-06-25T05:50:33.660Z,88.57
2018-06-25T05:53:03.703Z,66.07
2018-06-25T05:55:33.869Z,81.10
2018-06-25T05:58:04.212Z,61.17
2018-06-25T06:00:34.542Z,61.53
2018-06-25T06:03:04.981Z,52.05
2018-06-25T06:05:35.435Z,24.17
2018-06-25T06:08:05.512Z,31.45
2018-06-25T06:10:35.761Z,36.70
2018-06-25T06:13:06.580Z,29.77
2018-06-25T06:15:37.288Z,17.80
2018-06-25T06:18:07.776Z,11.85
2018-06-25T06:20:38.478Z,10.20
2018-06-25T06:23:08.750Z,18.10
2018-06-25T06:25:39.153Z,19.48
2018-06-25T06:28:09.640Z,19.92
2018-06-25T06:30:39.967Z,29.40
2018-06-25T06:33:10.700Z,14.40
2018-06-25T06:35:41.422Z,25.37
2018-06-25T06:38:11.618Z,12.53
2018-06-25T06:40:42.036Z,23.80
2018-06-25T06:43:12.288Z,13.48
2018-06-25T06:45:42.508Z,23.57
2018-06-25T06:48:12.741Z,21.25
2018-06-25T06:50:42.357Z,38.90
2018-06-25T06:53:12.538Z,30.80
2018-06-25T06:55:42.587Z,36.20
2018-06-25T06:58:12.764Z,34.40
2018-06-25T07:00:43.095Z,29.85
2018-06-25T07:03:13.641Z,18.80
2018-06-25T07:05:43.868Z,20.32
2018-06-25T07:08:13.364Z,12.98
2018-06-25T07:10:43.644Z,11.68
2018-06-25T07:13:13.797Z,10.75
2018-06-25T07:15:44.577Z,5.37
2018-06-25T07:18:14.869Z,5.87
2018-06-25T07:20:45.646Z,7.58
2018-06-25T07:23:16.327Z,7.25
2018-06-25T07:25:46.720Z,5.92
2018-06-25T07:28:17.245Z,9.70
2018-06-25T07:30:47.610Z,5.58
2018-06-25T07:33:17.991Z,6.92
2018-06-25T07:35:48.371Z,5.22
2018-06-25T07:38:18.878Z,3.58
2018-06-25T07:40:49.165Z,4.22
2018-06-25T07:43:19.597Z,4.55
2018-06-25T07:45:50.085Z,6.70
2018-06-25T07:48:21.042Z,4.92
2018-06-25T07:50:51.607Z,7.60
2018-06-25T07:53:21.851Z,6.90
2018-06-25T07:55:52.244Z,10.30
2018-06-25T07:58:22.763Z,5.97
2018-06-25T08:00:52.924Z,10.00
2018-06-25T08:03:23.503Z,16.85
2018-06-25T08:05:53.877Z,14.45
2018-06-25T08:08:24.640Z,8.93
2018-06-25T08:10:54.812Z,8.33
2018-06-25T08:13:25.466Z,10.10
2018-06-25T08:15:55.712Z,14.03
2018-06-25T08:18:26.544Z,9.65
2018-06-25T08:20:56.795Z,12.95
2018-06-25T08:23:28.048Z,14.58
2018-06-25T08:25:58.329Z,6.70
2018-06-25T08:28:28.962Z,3.65
2018-06-25T08:30:59.186Z,9.63
2018-06-25T08:33:29.764Z,14.20
2018-06-25T08:36:00.084Z,4.10
2018-06-25T08:38:32.017Z,4.42
2018-06-25T08:41:02.805Z,6.08
2018-06-25T08:43:33.238Z,6.90
2018-06-25T08:46:03.517Z,7.00
2018-06-25T08:48:33.795Z,5.20
2018-06-25T08:51:04.065Z,5.95
2018-06-25T08:53:34.209Z,9.93
2018-06-25T08:56:04.643Z,7.78
2018-06-25T08:58:34.748Z,5.58
2018-06-25T09:01:05.226Z,7.65
2018-06-25T09:03:34.829Z,4.45
2018-06-25T09:06:05.272Z,7.33
2018-06-25T09:08:34.960Z,11.80
2018-06-25T09:11:05.485Z,7.97
2018-06-25T09:13:34.890Z,11.68
2018-06-25T09:16:05.080Z,6.20
2018-06-25T09:18:35.354Z,4.65
2018-06-25T09:21:06.186Z,8.50
2018-06-25T09:23:37.348Z,11.70
2018-06-25T09:26:07.943Z,18.62
2018-06-25T09:28:38.573Z,10.68
2018-06-25T09:31:08.938Z,5.17
2018-06-25T09:33:39.580Z,4.17
2018-06-25T09:36:09.788Z,9.78
2018-06-25T09:38:40.239Z,5.67
2018-06-25T09:41:10.759Z,8.20
2018-06-25T09:43:40.965Z,11.03
2018-06-25T09:46:11.285Z,4.37
2018-06-25T09:48:41.649Z,5.12
2018-06-25T09:51:12.372Z,6.15
2018-06-25T09:53:43.087Z,5.45
2018-06-25T09:56:15.695Z,6.85
2018-06-25T09:58:46.088Z,5.95
2018-06-25T10:01:16.318Z,8.00
2018-06-25T10:03:46.572Z,4.83
2018-06-25T10:06:16.974Z,7.55
2018-06-25T10:08:47.388Z,7.05
2018-06-25T10:11:18.293Z,7.70
2018-06-25T10:13:48.926Z,5.20
2018-06-25T10:16:19.540Z,6.62
2018-06-25T10:18:50.086Z,9.28
2018-06-25T10:21:21.503Z,4.47
2018-06-25T10:23:51.942Z,10.50
2018-06-25T10:26:21.775Z,6.45
2018-06-25T10:28:52.189Z,4.87
2018-06-25T10:31:22.548Z,7.47
2018-06-25T10:33:53.196Z,6.03
2018-06-25T10:36:23.638Z,7.08
2018-06-25T10:38:54.055Z,11.53
2018-06-25T10:41:24.535Z,8.93
2018-06-25T10:43:55.094Z,6.85
2018-06-25T10:46:25.668Z,8.30
2018-06-25T10:48:56.231Z,9.45
2018-06-25T10:53:50.970Z,13.22
2018-06-25T10:56:21.306Z,6.15
2018-06-25T10:58:51.336Z,6.35
2018-06-25T11:01:21.585Z,5.22
2018-06-25T11:03:51.904Z,6.03
2018-06-25T11:06:23.222Z,7.28
2018-06-25T11:08:53.201Z,5.67
2018-06-25T11:11:24.286Z,5.78
2018-06-25T11:13:54.587Z,8.50
2018-06-25T11:16:25.017Z,2.85
2018-06-25T11:18:55.849Z,7.90
2018-06-25T11:21:26.184Z,4.95
2018-06-25T11:23:56.609Z,5.58
2018-06-25T11:26:26.880Z,7.55
2018-06-25T11:28:57.265Z,6.80
2018-06-25T11:31:28.078Z,8.55
2018-06-25T11:33:58.230Z,3.42
2018-06-25T11:36:29.016Z,3.87
2018-06-25T11:38:59.619Z,11.35
2018-06-25T11:41:30.035Z,8.35
2018-06-25T11:44:00.524Z,5.35
2018-06-25T11:46:30.820Z,9.30
2018-06-25T11:49:01.123Z,3.17
2018-06-25T11:51:32.920Z,8.10
2018-06-25T11:54:03.401Z,6.75
2018-06-25T11:56:33.777Z,6.50
2018-06-25T11:59:04.550Z,6.92
2018-06-25T12:01:34.847Z,5.65
2018-06-25T12:04:05.438Z,6.20
2018-06-25T12:06:35.736Z,4.20
2018-06-25T12:09:08.569Z,6.95
2018-06-25T12:11:38.665Z,8.63
2018-06-25T12:14:08.880Z,4.60
2018-06-25T12:16:39.261Z,4.05
2018-06-25T12:19:09.537Z,12.23
2018-06-25T12:21:39.763Z,6.40
2018-06-25T12:24:10.105Z,10.23
2018-06-25T12:26:40.663Z,8.08
2018-06-25T12:29:11.352Z,3.12
2018-06-25T12:31:41.630Z,3.08
2018-06-25T12:34:11.804Z,7.20
2018-06-25T12:36:42.382Z,4.67
2018-06-25T12:39:12.959Z,4.35
2018-06-25T12:41:43.593Z,9.20
2018-06-25T12:44:13.164Z,4.92
2018-06-25T12:46:43.405Z,6.15
2018-06-25T12:49:13.659Z,9.40
2018-06-25T12:51:43.915Z,5.85
2018-06-25T12:54:14.269Z,3.92
2018-06-25T12:56:44.675Z,3.45
2018-06-25T12:59:14.937Z,3.62
2018-06-25T13:01:45.418Z,5.80
2018-06-25T13:04:15.952Z,3.42
2018-06-25T13:06:46.507Z,3.70
2018-06-25T13:09:16.681Z,5.05
2018-06-25T13:11:47.228Z,5.50
2018-06-25T13:14:17.418Z,5.55
2018-06-25T13:16:48.590Z,6.15
2018-06-25T13:19:18.684Z,5.10
2018-06-25T13:21:48.906Z,8.93
2018-06-25T13:24:19.109Z,4.53
2018-06-25T13:26:49.455Z,6.58
2018-06-25T13:29:19.720Z,3.62
2018-06-25T13:31:49.555Z,5.22
2018-06-25T13:34:19.580Z,2.92
2018-06-25T13:36:49.477Z,7.17
2018-06-25T13:39:20.441Z,4.30
2018-06-25T13:41:50.761Z,6.92
2018-06-25T13:44:20.431Z,4.95
2018-06-25T13:46:50.555Z,3.35
2018-06-25T13:49:21.277Z,4.70
2018-06-25T13:51:51.819Z,9.53
2018-06-25T13:54:22.227Z,3.50
2018-06-25T13:56:52.613Z,2.85
2018-06-25T13:59:23.048Z,4.03
2018-06-25T14:01:53.900Z,4.83
2018-06-25T14:04:24.073Z,7.33
2018-06-25T14:06:55.276Z,8.58
2018-06-25T14:09:25.484Z,6.17
2018-06-25T14:11:55.694Z,6.30
2018-06-25T14:14:26.055Z,2.77
2018-06-25T14:16:56.801Z,7.05
2018-06-25T14:19:27.370Z,4.60
2018-06-25T14:21:57.680Z,4.30
2018-06-25T14:24:32.957Z,3.75
2018-06-25T14:27:08.337Z,4.62
2018-06-25T14:29:38.655Z,3.35
2018-06-25T14:32:14.445Z,4.45
2018-06-25T14:34:48.902Z,7.15
2018-06-25T14:37:19.137Z,7.30
2018-06-25T14:39:49.460Z,3.85
2018-06-25T14:42:20.395Z,4.37
2018-06-25T14:44:51.683Z,6.22
2018-06-25T14:47:22.052Z,4.33
2018-06-25T14:49:52.378Z,5.00
2018-06-25T14:52:22.768Z,4.12
2018-06-25T14:54:53.156Z,2.95
2018-06-25T14:57:22.861Z,5.20
2018-06-25T14:59:53.055Z,6.05
2018-06-25T15:02:23.141Z,6.42
2018-06-25T15:04:53.534Z,1.37
2018-06-25T15:07:23.729Z,3.02
2018-06-25T15:09:54.133Z,4.12
2018-06-25T15:12:24.485Z,4.60
2018-06-25T15:14:54.664Z,11.33
2018-06-25T15:17:24.986Z,3.87
2018-06-25T15:19:55.349Z,7.10
2018-06-25T15:22:25.462Z,5.60
2018-06-25T15:24:55.751Z,5.92
2018-06-25T15:27:25.848Z,3.92
2018-06-25T15:29:55.569Z,10.13
2018-06-25T15:32:31.249Z,4.05
2018-06-25T15:35:01.856Z,3.58
2018-06-25T15:37:32.289Z,5.75
2018-06-25T15:40:02.842Z,3.15
2018-06-25T15:42:33.123Z,4.50
2018-06-25T15:45:03.768Z,2.50
2018-06-25T15:47:34.389Z,3.58
2018-06-25T15:50:04.201Z,4.83
2018-06-25T15:52:33.722Z,4.25
2018-06-25T15:55:03.873Z,2.60
2018-06-25T15:57:34.409Z,4.03
2018-06-25T16:00:05.233Z,5.45
2018-06-25T16:02:35.886Z,3.83
2018-06-25T16:05:06.505Z,4.12
2018-06-25T16:07:36.926Z,5.08
2018-06-25T16:10:08.025Z,3.92
2018-06-25T16:12:38.565Z,4.40
2018-06-25T16:15:09.295Z,3.98
2018-06-25T16:17:39.621Z,4.60
2018-06-25T16:20:09.569Z,2.87
2018-06-25T16:22:40.324Z,4.78
2018-06-25T16:25:11.998Z,4.25
2018-06-25T16:27:42.801Z,3.65
2018-06-25T16:30:13.731Z,3.80
2018-06-25T16:32:44.951Z,4.08
2018-06-25T16:35:14.899Z,9.78
2018-06-25T16:37:45.587Z,4.95
2018-06-25T16:40:15.257Z,5.92
2018-06-25T16:42:46.116Z,3.70
2018-06-25T16:45:16.705Z,4.20
2018-06-25T16:47:48.435Z,2.95
2018-06-25T16:50:18.991Z,3.05
2018-06-25T16:52:49.909Z,4.12
2018-06-25T16:55:20.282Z,6.72
2018-06-25T16:57:50.748Z,2.42
2018-06-25T17:00:21.792Z,5.70
2018-06-25T17:02:52.082Z,6.03
2018-06-25T17:05:22.808Z,2.85
2018-06-25T17:07:53.697Z,3.62
2018-06-25T17:10:25.920Z,3.25
2018-06-25T17:12:56.374Z,4.47
2018-06-25T17:15:26.912Z,4.53
2018-06-25T17:17:56.400Z,3.25
2018-06-25T17:20:28.256Z,3.70
2018-06-25T17:22:58.561Z,5.62
2018-06-25T17:25:29.963Z,3.45
2018-06-25T17:28:01.469Z,4.10
2018-06-25T17:30:33.410Z,4.17
2018-06-25T17:33:05.378Z,2.37
2018-06-25T17:35:37.685Z,5.20
2018-06-25T17:38:11.983Z,5.50
2018-06-25T17:40:43.805Z,4.42
2018-06-25T17:43:14.497Z,4.20
2018-06-25T17:45:44.927Z,4.67
2018-06-25T17:48:15.310Z,4.28
2018-06-25T17:50:45.896Z,8.28
2018-06-25T17:53:16.475Z,6.37
2018-06-25T17:55:46.840Z,7.35
2018-06-25T17:58:19.271Z,6.92
2018-06-25T18:00:50.125Z,5.37
2018-06-25T18:03:25.362Z,3.12
2018-06-25T18:05:57.419Z,9.13
2018-06-25T18:08:27.948Z,4.53
2018-06-25T18:10:58.347Z,3.35
2018-06-25T18:13:28.797Z,6.78
2018-06-25T18:15:59.358Z,4.37
2018-06-25T18:18:29.934Z,6.22
2018-06-25T18:21:00.169Z,4.35
2018-06-25T18:23:30.843Z,6.87
2018-06-25T18:26:01.046Z,4.70
2018-06-25T18:28:31.570Z,6.60
2018-06-25T18:31:02.088Z,4.10
2018-06-25T18:33:32.556Z,4.65
2018-06-25T18:36:02.769Z,4.95
2018-06-25T18:38:33.501Z,4.97
2018-06-25T18:41:03.127Z,3.60
2018-06-25T18:43:33.177Z,4.22
2018-06-25T18:46:03.589Z,6.20
2018-06-25T18:48:34.085Z,4.13
2018-06-25T18:51:03.856Z,5.17
2018-06-25T18:53:33.349Z,4.07
2018-06-25T18:56:03.454Z,3.87
2018-06-25T18:58:33.847Z,5.67
2018-06-25T19:01:05.486Z,6.43
2018-06-25T19:03:36.236Z,5.23
2018-06-25T19:06:06.819Z,6.63
2018-06-25T19:08:37.402Z,4.97
2018-06-25T19:11:08.000Z,3.57
2018-06-25T19:13:38.657Z,5.27
2018-06-25T19:16:08.880Z,5.47
2018-06-25T19:18:38.609Z,10.07
2018-06-25T19:21:09.174Z,8.23
2018-06-25T19:23:39.699Z,5.60
2018-06-25T19:26:10.922Z,4.53
2018-06-25T19:28:41.234Z,5.53
2018-06-25T19:31:11.890Z,3.23
2018-06-25T19:33:42.129Z,9.63
2018-06-25T19:36:14.445Z,7.33
2018-06-25T19:38:45.982Z,6.60
2018-06-25T19:41:16.611Z,7.73
2018-06-25T19:43:47.454Z,6.10
2018-06-25T19:46:18.193Z,5.80
2018-06-25T19:48:48.920Z,4.50
2018-06-25T19:51:19.876Z,7.83
2018-06-25T19:53:51.253Z,3.60
2018-06-25T19:56:22.160Z,5.77
2018-06-25T19:58:58.083Z,6.27
2018-06-25T20:01:29.217Z,4.00
2018-06-25T20:04:05.462Z,6.80
2018-06-25T20:06:37.298Z,5.57
2018-06-25T20:09:14.210Z,6.20
2018-06-25T20:11:51.621Z,3.50
2018-06-25T20:14:23.699Z,5.23
2018-06-25T20:16:54.521Z,4.50
2018-06-25T20:19:26.511Z,9.50
2018-06-25T20:22:01.387Z,2.80
2018-06-25T20:24:33.535Z,5.97
2018-06-25T20:27:03.363Z,9.13
2018-06-25T20:29:34.841Z,7.27
2018-06-25T20:32:07.693Z,6.33
2018-06-25T20:34:39.366Z,4.87
2018-06-25T20:37:11.543Z,7.40
2018-06-25T20:39:43.612Z,7.10
2018-06-25T20:42:15.417Z,8.27
2018-06-25T20:44:47.455Z,6.27
2018-06-25T20:47:18.236Z,10.83
2018-06-25T20:49:50.213Z,7.73
2018-06-25T20:52:20.083Z,5.57
2018-06-25T20:54:53.643Z,5.43
2018-06-25T20:57:30.565Z,6.33
2018-06-25T21:00:02.641Z,9.40
2018-06-25T21:02:34.555Z,7.93
2018-06-25T21:05:06.372Z,10.40
2018-06-25T21:07:37.668Z,5.80
2018-06-25T21:10:08.233Z,7.90
2018-06-25T21:12:42.552Z,4.23
2018-06-25T21:15:14.620Z,8.23
2018-06-25T21:17:45.776Z,5.97
2018-06-25T21:20:18.250Z,7.37
2018-06-25T21:22:49.349Z,7.27
2018-06-25T21:25:19.967Z,8.37
2018-06-25T21:27:50.466Z,5.73
2018-06-25T21:30:20.573Z,9.33
2018-06-25T21:32:50.950Z,7.70
2018-06-25T21:35:21.302Z,8.73
2018-06-25T21:37:51.528Z,7.07
2018-06-25T21:40:21.509Z,12.47
2018-06-25T21:42:51.757Z,11.93
2018-06-25T21:45:22.209Z,9.83
2018-06-25T21:47:52.591Z,8.70
2018-06-25T21:50:22.828Z,8.40
2018-06-25T21:52:53.269Z,8.13
2018-06-25T21:55:24.040Z,10.13
2018-06-25T21:57:54.210Z,7.20
2018-06-25T22:00:26.016Z,7.57
2018-06-25T22:02:56.424Z,7.67
2018-06-25T22:05:26.773Z,4.67
2018-06-25T22:07:57.017Z,5.23
2018-06-25T22:10:26.746Z,12.33
2018-06-25T22:12:56.878Z,21.87
2018-06-25T22:15:27.223Z,5.77
2018-06-25T22:17:57.628Z,10.07
2018-06-25T22:20:27.782Z,9.33
2018-06-25T22:22:58.233Z,6.80
2018-06-25T22:25:28.669Z,6.27
2018-06-25T22:27:59.062Z,6.07
2018-06-25T22:30:30.166Z,4.87
2018-06-25T22:32:59.622Z,8.50
2018-06-25T22:35:29.926Z,7.63
2018-06-25T22:38:00.205Z,3.47
2018-06-25T22:40:31.349Z,6.83
2018-06-25T22:43:01.646Z,6.47
2018-06-25T22:45:31.853Z,9.63
2018-06-25T22:48:02.094Z,5.13
2018-06-25T22:50:32.123Z,4.87
2018-06-25T22:53:02.324Z,4.43
2018-06-25T22:55:33.664Z,7.57
2018-06-25T22:58:03.658Z,7.63
2018-06-25T23:00:34.283Z,9.30
2018-06-25T23:03:04.563Z,7.77
2018-06-25T23:05:34.146Z,6.40
2018-06-25T23:08:04.038Z,7.00
2018-06-25T23:10:34.289Z,6.27
2018-06-25T23:13:04.644Z,9.40
2018-06-25T23:15:34.851Z,10.70
2018-06-25T23:18:04.860Z,7.50
2018-06-25T23:20:35.029Z,6.93
2018-06-25T23:23:05.571Z,7.93
2018-06-25T23:25:35.724Z,10.43
2018-06-25T23:28:06.518Z,9.87
2018-06-25T23:30:36.833Z,13.27
2018-06-25T23:33:07.024Z,11.33
2018-06-25T23:35:36.925Z,15.97
2018-06-25T23:38:08.189Z,12.10
2018-06-25T23:40:38.511Z,11.80
2018-06-25T23:43:08.966Z,11.97
2018-06-25T23:45:39.273Z,13.83
2018-06-25T23:48:09.294Z,12.13
2018-06-25T23:50:39.002Z,8.77
2018-06-25T23:53:09.185Z,11.43
2018-06-25T23:55:39.934Z,8.47
2018-06-25T23:58:10.051Z,8.60
